sensor_id;sensor_type;location;lat;lon;timestamp;pressure;altitude;pressure_sealevel;temperature;humidity
7774;BME280;3931;42.260;23.116;2022-09-09T00:00:18;95694.31;;;28.32;53.44
7774;BME280;3931;42.260;23.116;2022-09-09T00:02:49;95692.38;;;28.74;52.85
7774;BME280;3931;42.260;23.116;2022-09-09T00:05:25;95685.91;;;28.73;52.63
7774;BME280;3931;42.260;23.116;2022-09-09T00:07:54;95685.06;;;28.65;52.82
7774;BME280;3931;42.260;23.116;2022-09-09T00:10:25;95680.56;;;28.44;53.10
7774;BME280;3931;42.260;23.116;2022-09-09T00:13:04;95678.69;;;28.72;52.82
7774;BME280;3931;42.260;23.116;2022-09-09T00:15:37;95667.41;;;28.07;53.88
7774;BME280;3931;42.260;23.116;2022-09-09T00:18:14;95673.47;;;28.37;53.37
7774;BME280;3931;42.260;23.116;2022-09-09T00:20:47;95668.25;;;28.15;54.05
7774;BME280;3931;42.260;23.116;2022-09-09T00:23:20;95673.94;;;28.41;53.34
7774;BME280;3931;42.260;23.116;2022-09-09T00:25:56;95676.94;;;28.56;52.96
7774;BME280;3931;42.260;23.116;2022-09-09T00:28:27;95681.16;;;28.29;53.71
7774;BME280;3931;42.260;23.116;2022-09-09T00:30:56;95683.03;;;28.27;54.03
7774;BME280;3931;42.260;23.116;2022-09-09T00:33:26;95662.56;;;27.50;55.91
7774;BME280;3931;42.260;23.116;2022-09-09T00:35:56;95679.47;;;28.47;53.67
7774;BME280;3931;42.260;23.116;2022-09-09T00:38:26;95679.69;;;28.49;53.38
7774;BME280;3931;42.260;23.116;2022-09-09T00:40:59;95680.63;;;28.77;52.73
7774;BME280;3931;42.260;23.116;2022-09-09T00:43:29;95669.69;;;28.68;52.73
7774;BME280;3931;42.260;23.116;2022-09-09T00:46:10;95659.53;;;28.94;52.38
7774;BME280;3931;42.260;23.116;2022-09-09T00:48:47;95663.50;;;28.44;53.09
7774;BME280;3931;42.260;23.116;2022-09-09T00:51:25;95666.09;;;28.21;52.88
7774;BME280;3931;42.260;23.116;2022-09-09T00:54:05;95660.91;;;28.20;53.83
7774;BME280;3931;42.260;23.116;2022-09-09T00:56:37;95663.16;;;28.60;52.72
7774;BME280;3931;42.260;23.116;2022-09-09T00:59:20;95670.13;;;28.12;53.71
7774;BME280;3931;42.260;23.116;2022-09-09T01:01:48;95654.00;;;27.36;56.46
7774;BME280;3931;42.260;23.116;2022-09-09T01:04:20;95653.38;;;27.57;56.00
7774;BME280;3931;42.260;23.116;2022-09-09T01:06:54;95663.09;;;28.27;54.19
7774;BME280;3931;42.260;23.116;2022-09-09T01:09:29;95673.94;;;28.75;52.52
7774;BME280;3931;42.260;23.116;2022-09-09T01:12:02;95679.44;;;28.73;52.22
7774;BME280;3931;42.260;23.116;2022-09-09T01:14:41;95682.88;;;28.58;52.25
7774;BME280;3931;42.260;23.116;2022-09-09T01:17:13;95678.22;;;27.95;53.84
7774;BME280;3931;42.260;23.116;2022-09-09T01:19:53;95677.34;;;28.13;53.53
7774;BME280;3931;42.260;23.116;2022-09-09T01:22:29;95677.88;;;27.86;54.32
7774;BME280;3931;42.260;23.116;2022-09-09T01:25:30;95670.47;;;27.83;54.40
7774;BME280;3931;42.260;23.116;2022-09-09T01:28:00;95675.47;;;27.77;54.77
7774;BME280;3931;42.260;23.116;2022-09-09T01:30:28;95681.84;;;27.83;54.50
7774;BME280;3931;42.260;23.116;2022-09-09T01:32:56;95671.66;;;27.74;54.56
7774;BME280;3931;42.260;23.116;2022-09-09T01:35:32;95677.78;;;27.91;54.21
7774;BME280;3931;42.260;23.116;2022-09-09T01:38:01;95684.25;;;28.05;53.74
7774;BME280;3931;42.260;23.116;2022-09-09T01:40:27;95675.47;;;27.77;54.65
7774;BME280;3931;42.260;23.116;2022-09-09T01:42:54;95680.38;;;28.29;53.39
7774;BME280;3931;42.260;23.116;2022-09-09T01:45:22;95674.97;;;28.51;52.79
7774;BME280;3931;42.260;23.116;2022-09-09T01:47:50;95673.00;;;28.46;52.34
7774;BME280;3931;42.260;23.116;2022-09-09T01:50:17;95673.88;;;28.54;52.43
7774;BME280;3931;42.260;23.116;2022-09-09T01:52:45;95665.34;;;28.07;53.66
7774;BME280;3931;42.260;23.116;2022-09-09T01:55:13;95659.28;;;27.85;54.35
7774;BME280;3931;42.260;23.116;2022-09-09T01:57:44;95654.91;;;27.71;54.03
7774;BME280;3931;42.260;23.116;2022-09-09T02:00:14;95657.97;;;27.47;55.08
7774;BME280;3931;42.260;23.116;2022-09-09T02:02:48;95650.41;;;27.04;56.25
7774;BME280;3931;42.260;23.116;2022-09-09T02:05:27;95644.81;;;26.99;56.40
7774;BME280;3931;42.260;23.116;2022-09-09T02:08:01;95644.75;;;27.04;56.54
7774;BME280;3931;42.260;23.116;2022-09-09T02:10:32;95629.25;;;26.55;58.33
7774;BME280;3931;42.260;23.116;2022-09-09T02:13:04;95608.50;;;26.79;59.59
7774;BME280;3931;42.260;23.116;2022-09-09T02:15:33;95625.09;;;27.19;58.42
7774;BME280;3931;42.260;23.116;2022-09-09T02:18:04;95629.69;;;27.09;58.63
7774;BME280;3931;42.260;23.116;2022-09-09T02:20:34;95646.16;;;27.56;56.44
7774;BME280;3931;42.260;23.116;2022-09-09T02:23:01;95637.97;;;27.07;57.56
7774;BME280;3931;42.260;23.116;2022-09-09T02:25:28;95639.06;;;27.49;57.08
7774;BME280;3931;42.260;23.116;2022-09-09T02:27:55;95638.31;;;27.17;57.55
7774;BME280;3931;42.260;23.116;2022-09-09T02:30:24;95638.41;;;27.56;56.40
7774;BME280;3931;42.260;23.116;2022-09-09T02:32:52;95604.03;;;26.33;60.01
7774;BME280;3931;42.260;23.116;2022-09-09T02:35:24;95587.78;;;26.33;60.98
7774;BME280;3931;42.260;23.116;2022-09-09T02:37:53;95610.28;;;26.63;60.28
7774;BME280;3931;42.260;23.116;2022-09-09T02:40:21;95614.56;;;26.38;60.24
7774;BME280;3931;42.260;23.116;2022-09-09T02:42:48;95624.47;;;26.63;59.95
7774;BME280;3931;42.260;23.116;2022-09-09T02:45:17;95646.41;;;27.13;57.62
7774;BME280;3931;42.260;23.116;2022-09-09T02:47:47;95648.41;;;27.31;56.60
7774;BME280;3931;42.260;23.116;2022-09-09T02:50:19;95652.44;;;26.91;58.46
7774;BME280;3931;42.260;23.116;2022-09-09T02:52:58;95656.53;;;27.08;57.46
7774;BME280;3931;42.260;23.116;2022-09-09T02:55:37;95672.19;;;27.60;55.91
7774;BME280;3931;42.260;23.116;2022-09-09T02:58:05;95670.75;;;27.79;55.42
7774;BME280;3931;42.260;23.116;2022-09-09T03:00:33;95670.25;;;28.07;54.58
7774;BME280;3931;42.260;23.116;2022-09-09T03:03:01;95668.06;;;27.74;54.84
7774;BME280;3931;42.260;23.116;2022-09-09T03:05:27;95670.69;;;28.11;54.54
7774;BME280;3931;42.260;23.116;2022-09-09T03:07:54;95668.13;;;27.94;54.43
7774;BME280;3931;42.260;23.116;2022-09-09T03:10:20;95652.50;;;27.49;55.39
7774;BME280;3931;42.260;23.116;2022-09-09T03:12:46;95665.72;;;27.46;55.34
7774;BME280;3931;42.260;23.116;2022-09-09T03:15:12;95667.47;;;27.36;55.55
7774;BME280;3931;42.260;23.116;2022-09-09T03:17:40;95667.78;;;27.45;55.80
7774;BME280;3931;42.260;23.116;2022-09-09T03:20:07;95655.53;;;27.37;55.38
7774;BME280;3931;42.260;23.116;2022-09-09T03:22:33;95665.53;;;27.25;55.91
7774;BME280;3931;42.260;23.116;2022-09-09T03:25:00;95660.53;;;26.68;57.29
7774;BME280;3931;42.260;23.116;2022-09-09T03:27:27;95642.94;;;26.38;58.73
7774;BME280;3931;42.260;23.116;2022-09-09T03:29:53;95636.09;;;26.28;59.28
7774;BME280;3931;42.260;23.116;2022-09-09T03:32:20;95634.94;;;26.36;59.60
7774;BME280;3931;42.260;23.116;2022-09-09T03:34:47;95649.03;;;26.60;58.63
7774;BME280;3931;42.260;23.116;2022-09-09T03:37:15;95648.94;;;26.66;58.06
7774;BME280;3931;42.260;23.116;2022-09-09T03:39:42;95653.19;;;26.78;57.49
7774;BME280;3931;42.260;23.116;2022-09-09T03:42:09;95660.47;;;26.55;58.08
7774;BME280;3931;42.260;23.116;2022-09-09T03:44:36;95641.94;;;26.35;59.43
7774;BME280;3931;42.260;23.116;2022-09-09T03:47:02;95633.31;;;26.03;59.86
7774;BME280;3931;42.260;23.116;2022-09-09T03:49:28;95659.53;;;26.84;57.87
7774;BME280;3931;42.260;23.116;2022-09-09T03:51:54;95670.00;;;26.76;57.12
7774;BME280;3931;42.260;23.116;2022-09-09T03:54:20;95650.72;;;26.50;58.21
7774;BME280;3931;42.260;23.116;2022-09-09T03:56:46;95652.44;;;26.72;58.28
7774;BME280;3931;42.260;23.116;2022-09-09T03:59:13;95664.34;;;26.89;57.17
7774;BME280;3931;42.260;23.116;2022-09-09T04:01:39;95665.94;;;27.16;56.32
7774;BME280;3931;42.260;23.116;2022-09-09T04:04:05;95663.00;;;27.09;56.83
7774;BME280;3931;42.260;23.116;2022-09-09T04:06:31;95670.78;;;27.21;56.31
7774;BME280;3931;42.260;23.116;2022-09-09T04:08:57;95671.41;;;27.14;56.56
7774;BME280;3931;42.260;23.116;2022-09-09T04:11:23;95657.06;;;26.94;57.29
7774;BME280;3931;42.260;23.116;2022-09-09T04:13:50;95659.75;;;27.18;56.54
7774;BME280;3931;42.260;23.116;2022-09-09T04:16:16;95673.16;;;27.04;56.10
7774;BME280;3931;42.260;23.116;2022-09-09T04:18:43;95656.50;;;26.95;57.24
7774;BME280;3931;42.260;23.116;2022-09-09T04:21:09;95665.72;;;27.14;56.59
7774;BME280;3931;42.260;23.116;2022-09-09T04:23:37;95658.75;;;26.84;57.75
7774;BME280;3931;42.260;23.116;2022-09-09T04:26:04;95670.06;;;27.34;56.16
7774;BME280;3931;42.260;23.116;2022-09-09T04:28:33;95662.44;;;27.10;56.89
7774;BME280;3931;42.260;23.116;2022-09-09T04:31:04;95669.13;;;27.44;56.07
7774;BME280;3931;42.260;23.116;2022-09-09T04:33:31;95654.44;;;26.96;57.02
7774;BME280;3931;42.260;23.116;2022-09-09T04:35:57;95651.41;;;27.07;57.13
7774;BME280;3931;42.260;23.116;2022-09-09T04:38:23;95669.84;;;27.00;57.43
7774;BME280;3931;42.260;23.116;2022-09-09T04:40:50;95665.94;;;27.16;57.36
7774;BME280;3931;42.260;23.116;2022-09-09T04:43:17;95675.38;;;27.24;57.34
7774;BME280;3931;42.260;23.116;2022-09-09T04:45:47;95678.00;;;27.22;56.95
7774;BME280;3931;42.260;23.116;2022-09-09T04:48:13;95695.94;;;27.30;56.44
7774;BME280;3931;42.260;23.116;2022-09-09T04:50:40;95693.69;;;27.42;55.63
7774;BME280;3931;42.260;23.116;2022-09-09T04:53:07;95699.06;;;27.14;56.75
7774;BME280;3931;42.260;23.116;2022-09-09T04:55:33;95689.19;;;27.02;57.34
7774;BME280;3931;42.260;23.116;2022-09-09T04:58:03;95699.19;;;27.66;55.77
7774;BME280;3931;42.260;23.116;2022-09-09T05:00:29;95684.78;;;27.32;56.67
7774;BME280;3931;42.260;23.116;2022-09-09T05:02:55;95650.28;;;26.28;60.07
7774;BME280;3931;42.260;23.116;2022-09-09T05:05:21;95647.13;;;26.50;59.08
7774;BME280;3931;42.260;23.116;2022-09-09T05:07:48;95602.72;;;26.34;60.76
7774;BME280;3931;42.260;23.116;2022-09-09T05:10:14;95629.69;;;26.78;59.15
7774;BME280;3931;42.260;23.116;2022-09-09T05:12:42;95631.59;;;27.01;58.36
7774;BME280;3931;42.260;23.116;2022-09-09T05:15:09;95640.28;;;27.09;58.27
7774;BME280;3931;42.260;23.116;2022-09-09T05:17:35;95652.28;;;27.47;57.21
7774;BME280;3931;42.260;23.116;2022-09-09T05:20:02;95659.41;;;27.79;55.78
7774;BME280;3931;42.260;23.116;2022-09-09T05:22:29;95640.91;;;27.47;56.94
7774;BME280;3931;42.260;23.116;2022-09-09T05:24:56;95648.78;;;27.40;56.88
7774;BME280;3931;42.260;23.116;2022-09-09T05:27:23;95644.41;;;27.53;56.42
7774;BME280;3931;42.260;23.116;2022-09-09T05:29:50;95645.94;;;27.67;55.96
7774;BME280;3931;42.260;23.116;2022-09-09T05:32:16;95649.97;;;28.24;54.51
7774;BME280;3931;42.260;23.116;2022-09-09T05:34:42;95652.09;;;28.44;53.94
7774;BME280;3931;42.260;23.116;2022-09-09T05:37:08;95639.41;;;27.98;55.65
7774;BME280;3931;42.260;23.116;2022-09-09T05:39:34;95601.72;;;27.13;58.60
7774;BME280;3931;42.260;23.116;2022-09-09T05:42:03;95611.88;;;27.22;58.30
7774;BME280;3931;42.260;23.116;2022-09-09T05:44:29;95617.66;;;27.16;58.38
7774;BME280;3931;42.260;23.116;2022-09-09T05:46:56;95627.78;;;27.43;58.12
7774;BME280;3931;42.260;23.116;2022-09-09T05:49:23;95629.28;;;27.31;58.34
7774;BME280;3931;42.260;23.116;2022-09-09T05:51:49;95624.84;;;27.49;58.51
7774;BME280;3931;42.260;23.116;2022-09-09T05:54:16;95646.59;;;27.99;56.49
7774;BME280;3931;42.260;23.116;2022-09-09T05:56:42;95652.75;;;28.50;55.58
7774;BME280;3931;42.260;23.116;2022-09-09T05:59:09;95666.84;;;29.23;53.84
7774;BME280;3931;42.260;23.116;2022-09-09T06:01:36;95668.69;;;29.00;53.76
7774;BME280;3931;42.260;23.116;2022-09-09T06:04:06;95653.75;;;28.52;55.00
7774;BME280;3931;42.260;23.116;2022-09-09T06:06:34;95674.75;;;29.58;53.13
7774;BME280;3931;42.260;23.116;2022-09-09T06:09:03;95664.91;;;29.18;53.78
7774;BME280;3931;42.260;23.116;2022-09-09T06:11:32;95675.91;;;29.34;53.26
7774;BME280;3931;42.260;23.116;2022-09-09T06:13:59;95683.00;;;29.69;52.85
7774;BME280;3931;42.260;23.116;2022-09-09T06:16:28;95679.59;;;30.27;50.44
7774;BME280;3931;42.260;23.116;2022-09-09T06:18:55;95677.91;;;30.32;50.57
7774;BME280;3931;42.260;23.116;2022-09-09T06:21:23;95667.53;;;29.36;53.21
7774;BME280;3931;42.260;23.116;2022-09-09T06:23:49;95676.72;;;30.55;50.36
7774;BME280;3931;42.260;23.116;2022-09-09T06:26:19;95678.75;;;30.90;49.92
7774;BME280;3931;42.260;23.116;2022-09-09T06:28:46;95677.34;;;30.69;48.94
7774;BME280;3931;42.260;23.116;2022-09-09T06:31:14;95670.06;;;30.68;50.38
7774;BME280;3931;42.260;23.116;2022-09-09T06:33:43;95665.72;;;30.74;49.33
7774;BME280;3931;42.260;23.116;2022-09-09T06:36:12;95669.78;;;30.94;49.71
7774;BME280;3931;42.260;23.116;2022-09-09T06:38:38;95658.59;;;31.26;49.12
7774;BME280;3931;42.260;23.116;2022-09-09T06:41:04;95662.94;;;30.97;49.47
7774;BME280;3931;42.260;23.116;2022-09-09T06:43:31;95667.66;;;30.36;50.32
7774;BME280;3931;42.260;23.116;2022-09-09T06:45:59;95666.41;;;31.41;49.30
7774;BME280;3931;42.260;23.116;2022-09-09T06:48:25;95668.72;;;31.73;48.85
7774;BME280;3931;42.260;23.116;2022-09-09T06:51:00;95665.44;;;31.23;49.73
7774;BME280;3931;42.260;23.116;2022-09-09T06:53:26;95660.81;;;30.90;50.06
7774;BME280;3931;42.260;23.116;2022-09-09T06:55:52;95655.75;;;30.60;51.60
7774;BME280;3931;42.260;23.116;2022-09-09T06:58:18;95660.13;;;31.35;50.03
7774;BME280;3931;42.260;23.116;2022-09-09T07:00:44;95675.41;;;31.98;48.42
7774;BME280;3931;42.260;23.116;2022-09-09T07:03:10;95678.22;;;31.15;49.66
7774;BME280;3931;42.260;23.116;2022-09-09T07:05:36;95682.28;;;31.80;48.98
7774;BME280;3931;42.260;23.116;2022-09-09T07:08:03;95678.25;;;31.67;49.28
7774;BME280;3931;42.260;23.116;2022-09-09T07:10:29;95674.66;;;31.59;49.31
7774;BME280;3931;42.260;23.116;2022-09-09T07:12:56;95665.09;;;31.27;49.83
7774;BME280;3931;42.260;23.116;2022-09-09T07:15:22;95664.16;;;31.54;49.71
7774;BME280;3931;42.260;23.116;2022-09-09T07:17:48;95667.22;;;30.68;50.91
7774;BME280;3931;42.260;23.116;2022-09-09T07:20:14;95662.59;;;31.31;50.55
7774;BME280;3931;42.260;23.116;2022-09-09T07:22:40;95649.47;;;31.65;49.87
7774;BME280;3931;42.260;23.116;2022-09-09T07:25:08;95652.13;;;31.71;50.43
7774;BME280;3931;42.260;23.116;2022-09-09T07:27:34;95653.88;;;32.52;47.15
7774;BME280;3931;42.260;23.116;2022-09-09T07:30:00;95656.50;;;33.04;47.55
7774;BME280;3931;42.260;23.116;2022-09-09T07:32:27;95647.84;;;33.12;46.42
7774;BME280;3931;42.260;23.116;2022-09-09T07:34:53;95648.06;;;32.67;46.84
7774;BME280;3931;42.260;23.116;2022-09-09T07:37:19;95646.28;;;32.79;47.22
7774;BME280;3931;42.260;23.116;2022-09-09T07:39:45;95649.78;;;34.01;45.10
7774;BME280;3931;42.260;23.116;2022-09-09T07:42:12;95657.75;;;33.19;45.78
7774;BME280;3931;42.260;23.116;2022-09-09T07:44:38;95651.00;;;33.24;45.39
7774;BME280;3931;42.260;23.116;2022-09-09T07:47:05;95648.78;;;32.75;46.52
7774;BME280;3931;42.260;23.116;2022-09-09T07:49:32;95656.25;;;33.10;46.88
7774;BME280;3931;42.260;23.116;2022-09-09T07:51:58;95657.09;;;32.95;47.61
7774;BME280;3931;42.260;23.116;2022-09-09T07:54:24;95663.06;;;34.13;44.74
7774;BME280;3931;42.260;23.116;2022-09-09T07:56:52;95668.75;;;34.04;45.03
7774;BME280;3931;42.260;23.116;2022-09-09T07:59:18;95671.63;;;34.04;44.48
7774;BME280;3931;42.260;23.116;2022-09-09T08:01:46;95661.06;;;33.82;44.64
7774;BME280;3931;42.260;23.116;2022-09-09T08:04:14;95663.34;;;34.08;43.80
7774;BME280;3931;42.260;23.116;2022-09-09T08:06:43;95654.75;;;34.00;44.48
7774;BME280;3931;42.260;23.116;2022-09-09T08:09:10;95646.56;;;32.98;45.41
7774;BME280;3931;42.260;23.116;2022-09-09T08:11:36;95651.28;;;33.11;45.55
7774;BME280;3931;42.260;23.116;2022-09-09T08:14:03;95647.03;;;34.10;44.46
7774;BME280;3931;42.260;23.116;2022-09-09T08:16:31;95651.22;;;33.92;43.60
7774;BME280;3931;42.260;23.116;2022-09-09T08:18:58;95653.75;;;34.74;42.89
7774;BME280;3931;42.260;23.116;2022-09-09T08:21:27;95651.16;;;35.12;42.07
7774;BME280;3931;42.260;23.116;2022-09-09T08:23:55;95646.44;;;34.29;42.96
7774;BME280;3931;42.260;23.116;2022-09-09T08:26:23;95648.63;;;34.38;42.58
7774;BME280;3931;42.260;23.116;2022-09-09T08:28:50;95647.72;;;34.53;42.13
7774;BME280;3931;42.260;23.116;2022-09-09T08:31:19;95648.06;;;34.83;41.68
7774;BME280;3931;42.260;23.116;2022-09-09T08:33:47;95654.91;;;33.11;44.56
7774;BME280;3931;42.260;23.116;2022-09-09T08:36:16;95654.41;;;33.79;44.04
7774;BME280;3931;42.260;23.116;2022-09-09T08:38:42;95660.50;;;34.86;42.96
7774;BME280;3931;42.260;23.116;2022-09-09T08:41:29;95647.09;;;34.98;41.74
7774;BME280;3931;42.260;23.116;2022-09-09T08:44:05;95650.31;;;35.55;41.04
7774;BME280;3931;42.260;23.116;2022-09-09T08:46:37;95648.94;;;35.56;40.59
7774;BME280;3931;42.260;23.116;2022-09-09T08:49:16;95635.97;;;34.85;41.74
7774;BME280;3931;42.260;23.116;2022-09-09T08:51:45;95634.53;;;36.12;39.58
7774;BME280;3931;42.260;23.116;2022-09-09T08:54:11;95630.34;;;35.76;40.92
7774;BME280;3931;42.260;23.116;2022-09-09T08:56:37;95628.34;;;36.15;40.58
7774;BME280;3931;42.260;23.116;2022-09-09T08:59:03;95629.34;;;35.91;40.36
7774;BME280;3931;42.260;23.116;2022-09-09T09:01:42;95631.13;;;34.26;43.36
7774;BME280;3931;42.260;23.116;2022-09-09T09:04:26;95628.06;;;35.02;42.69
7774;BME280;3931;42.260;23.116;2022-09-09T09:07:03;95632.31;;;35.64;40.99
7774;BME280;3931;42.260;23.116;2022-09-09T09:09:37;95627.69;;;36.07;40.57
7774;BME280;3931;42.260;23.116;2022-09-09T09:12:15;95619.41;;;35.65;41.14
7774;BME280;3931;42.260;23.116;2022-09-09T09:14:42;95621.47;;;35.46;42.08
7774;BME280;3931;42.260;23.116;2022-09-09T09:17:11;95625.13;;;36.02;41.45
7774;BME280;3931;42.260;23.116;2022-09-09T09:19:40;95624.81;;;36.74;40.40
7774;BME280;3931;42.260;23.116;2022-09-09T09:22:17;95618.47;;;36.56;40.24
7774;BME280;3931;42.260;23.116;2022-09-09T09:24:51;95615.66;;;35.72;41.18
7774;BME280;3931;42.260;23.116;2022-09-09T09:27:24;95611.41;;;35.73;41.79
7774;BME280;3931;42.260;23.116;2022-09-09T09:29:54;95606.44;;;35.83;42.28
7774;BME280;3931;42.260;23.116;2022-09-09T09:32:24;95612.31;;;35.30;42.95
7774;BME280;3931;42.260;23.116;2022-09-09T09:34:55;95617.56;;;35.60;43.01
7774;BME280;3931;42.260;23.116;2022-09-09T09:37:28;95603.38;;;34.99;43.50
7774;BME280;3931;42.260;23.116;2022-09-09T09:39:55;95607.19;;;35.02;43.74
7774;BME280;3931;42.260;23.116;2022-09-09T09:42:21;95599.44;;;34.78;44.29
7774;BME280;3931;42.260;23.116;2022-09-09T09:44:47;95602.38;;;34.87;44.31
7774;BME280;3931;42.260;23.116;2022-09-09T09:47:15;95592.22;;;35.03;44.20
7774;BME280;3931;42.260;23.116;2022-09-09T09:49:51;95586.91;;;35.46;43.67
7774;BME280;3931;42.260;23.116;2022-09-09T09:52:21;95579.38;;;35.14;44.27
7774;BME280;3931;42.260;23.116;2022-09-09T09:54:49;95574.75;;;35.28;44.61
7774;BME280;3931;42.260;23.116;2022-09-09T09:57:16;95578.50;;;35.67;43.47
7774;BME280;3931;42.260;23.116;2022-09-09T09:59:43;95577.34;;;35.99;43.15
7774;BME280;3931;42.260;23.116;2022-09-09T10:02:19;95577.94;;;35.87;43.15
7774;BME280;3931;42.260;23.116;2022-09-09T10:04:46;95587.97;;;35.96;43.27
7774;BME280;3931;42.260;23.116;2022-09-09T10:07:17;95585.41;;;36.29;42.63
7774;BME280;3931;42.260;23.116;2022-09-09T10:09:44;95582.38;;;36.08;42.72
7774;BME280;3931;42.260;23.116;2022-09-09T10:12:20;95591.78;;;36.46;42.31
7774;BME280;3931;42.260;23.116;2022-09-09T10:14:55;95601.78;;;36.36;42.82
7774;BME280;3931;42.260;23.116;2022-09-09T10:17:33;95587.38;;;36.45;42.88
7774;BME280;3931;42.260;23.116;2022-09-09T10:20:19;95596.19;;;36.09;43.33
7774;BME280;3931;42.260;23.116;2022-09-09T10:22:51;95587.09;;;36.22;43.59
7774;BME280;3931;42.260;23.116;2022-09-09T10:25:34;95592.13;;;34.94;44.75
7774;BME280;3931;42.260;23.116;2022-09-09T10:28:23;95595.59;;;35.19;44.99
7774;BME280;3931;42.260;23.116;2022-09-09T10:31:05;95597.72;;;34.65;41.94
7774;BME280;3931;42.260;23.116;2022-09-09T10:33:44;95601.47;;;34.41;42.30
7774;BME280;3931;42.260;23.116;2022-09-09T10:36:19;95603.28;;;34.19;42.19
7774;BME280;3931;42.260;23.116;2022-09-09T10:38:47;95594.72;;;34.29;42.77
7774;BME280;3931;42.260;23.116;2022-09-09T10:41:19;95599.97;;;35.10;41.72
7774;BME280;3931;42.260;23.116;2022-09-09T10:44:06;95602.75;;;35.28;41.32
7774;BME280;3931;42.260;23.116;2022-09-09T10:46:48;95607.78;;;35.00;42.18
7774;BME280;3931;42.260;23.116;2022-09-09T10:49:26;95604.56;;;34.70;42.07
7774;BME280;3931;42.260;23.116;2022-09-09T10:52:02;95608.34;;;34.72;41.93
7774;BME280;3931;42.260;23.116;2022-09-09T10:54:42;95612.28;;;34.33;42.72
7774;BME280;3931;42.260;23.116;2022-09-09T10:57:16;95619.38;;;34.32;42.93
7774;BME280;3931;42.260;23.116;2022-09-09T10:59:46;95627.69;;;34.28;42.37
7774;BME280;3931;42.260;23.116;2022-09-09T11:02:16;95633.69;;;34.05;44.25
7774;BME280;3931;42.260;23.116;2022-09-09T11:04:48;95620.13;;;34.93;43.55
7774;BME280;3931;42.260;23.116;2022-09-09T11:07:24;95623.56;;;35.09;44.34
7774;BME280;3931;42.260;23.116;2022-09-09T11:09:56;95615.81;;;35.38;43.25
7774;BME280;3931;42.260;23.116;2022-09-09T11:12:27;95626.66;;;35.57;43.71
7774;BME280;3931;42.260;23.116;2022-09-09T11:14:59;95621.50;;;35.19;44.52
7774;BME280;3931;42.260;23.116;2022-09-09T11:17:29;95622.50;;;34.87;45.70
7774;BME280;3931;42.260;23.116;2022-09-09T11:19:59;95620.50;;;34.80;46.70
7774;BME280;3931;42.260;23.116;2022-09-09T11:22:29;95618.72;;;35.02;46.07
7774;BME280;3931;42.260;23.116;2022-09-09T11:25:00;95626.59;;;34.23;46.94
7774;BME280;3931;42.260;23.116;2022-09-09T11:27:37;95613.31;;;34.11;47.07
7774;BME280;3931;42.260;23.116;2022-09-09T11:30:18;95599.94;;;34.84;46.08
7774;BME280;3931;42.260;23.116;2022-09-09T11:33:08;95590.72;;;35.12;46.13
7774;BME280;3931;42.260;23.116;2022-09-09T11:35:48;95593.34;;;35.27;46.25
7774;BME280;3931;42.260;23.116;2022-09-09T11:38:23;95596.84;;;34.72;46.90
7774;BME280;3931;42.260;23.116;2022-09-09T11:40:56;95585.63;;;34.49;47.81
7774;BME280;3931;42.260;23.116;2022-09-09T11:43:29;95577.91;;;34.96;46.69
7774;BME280;3931;42.260;23.116;2022-09-09T11:45:59;95574.34;;;34.00;48.90
7774;BME280;3931;42.260;23.116;2022-09-09T11:48:29;95574.19;;;33.98;49.34
7774;BME280;3931;42.260;23.116;2022-09-09T11:50:58;95576.03;;;33.86;49.68
7774;BME280;3931;42.260;23.116;2022-09-09T11:53:26;95576.31;;;34.15;49.09
7774;BME280;3931;42.260;23.116;2022-09-09T11:56:04;95571.03;;;33.28;50.58
7774;BME280;3931;42.260;23.116;2022-09-09T11:58:36;95578.31;;;33.88;50.00
7774;BME280;3931;42.260;23.116;2022-09-09T12:01:13;95568.50;;;33.91;50.21
7774;BME280;3931;42.260;23.116;2022-09-09T12:03:42;95572.63;;;33.97;50.18
7774;BME280;3931;42.260;23.116;2022-09-09T12:06:14;95569.47;;;34.10;49.51
7774;BME280;3931;42.260;23.116;2022-09-09T12:08:43;95560.97;;;34.73;48.35
7774;BME280;3931;42.260;23.116;2022-09-09T12:11:10;95561.28;;;34.51;48.44
7774;BME280;3931;42.260;23.116;2022-09-09T12:13:37;95568.63;;;35.14;47.13
7774;BME280;3931;42.260;23.116;2022-09-09T12:16:03;95555.72;;;35.42;46.87
7774;BME280;3931;42.260;23.116;2022-09-09T12:18:33;95560.03;;;34.44;47.84
7774;BME280;3931;42.260;23.116;2022-09-09T12:21:06;95550.31;;;34.57;47.92
7774;BME280;3931;42.260;23.116;2022-09-09T12:23:40;95553.22;;;34.93;47.04
7774;BME280;3931;42.260;23.116;2022-09-09T12:26:21;95548.56;;;34.97;45.92
7774;BME280;3931;42.260;23.116;2022-09-09T12:28:58;95555.41;;;35.02;46.02
7774;BME280;3931;42.260;23.116;2022-09-09T12:31:32;95557.38;;;35.09;45.73
7774;BME280;3931;42.260;23.116;2022-09-09T12:34:10;95555.28;;;34.56;46.63
7774;BME280;3931;42.260;23.116;2022-09-09T12:36:37;95549.16;;;34.69;47.01
7774;BME280;3931;42.260;23.116;2022-09-09T12:39:14;95552.91;;;34.62;47.20
7774;BME280;3931;42.260;23.116;2022-09-09T12:41:51;95544.97;;;34.53;46.98
7774;BME280;3931;42.260;23.116;2022-09-09T12:44:23;95545.09;;;34.72;46.86
7774;BME280;3931;42.260;23.116;2022-09-09T12:46:50;95539.44;;;34.65;46.84
7774;BME280;3931;42.260;23.116;2022-09-09T12:49:28;95539.94;;;34.27;47.25
7774;BME280;3931;42.260;23.116;2022-09-09T12:51:55;95549.16;;;33.91;48.30
7774;BME280;3931;42.260;23.116;2022-09-09T12:54:22;95537.88;;;34.10;47.60
7774;BME280;3931;42.260;23.116;2022-09-09T12:56:49;95544.69;;;33.81;47.91
7774;BME280;3931;42.260;23.116;2022-09-09T12:59:23;95545.28;;;33.62;48.73
7774;BME280;3931;42.260;23.116;2022-09-09T13:01:55;95535.69;;;33.25;49.33
7774;BME280;3931;42.260;23.116;2022-09-09T13:04:22;95539.06;;;33.90;47.88
7774;BME280;3931;42.260;23.116;2022-09-09T13:06:48;95535.91;;;33.96;48.25
7774;BME280;3931;42.260;23.116;2022-09-09T13:09:14;95548.16;;;34.30;47.40
7774;BME280;3931;42.260;23.116;2022-09-09T13:11:42;95543.78;;;33.61;49.06
7774;BME280;3931;42.260;23.116;2022-09-09T13:14:13;95530.47;;;33.48;49.33
7774;BME280;3931;42.260;23.116;2022-09-09T13:16:56;95531.03;;;33.30;49.77
7774;BME280;3931;42.260;23.116;2022-09-09T13:19:22;95529.59;;;33.80;48.93
7774;BME280;3931;42.260;23.116;2022-09-09T13:21:51;95536.25;;;33.65;48.60
7774;BME280;3931;42.260;23.116;2022-09-09T13:24:26;95533.47;;;33.58;49.25